sensor_id;sensor_type;location;lat;lon;timestamp;pressure;altitude;pressure_sealevel;temperature;humidity
13013;BME280;22580;57.670;12.006;2023-04-25T00:02:18;99473.06;;;19.92;77.72
13013;BME280;22580;57.670;12.006;2023-04-25T00:04:45;99470.25;;;19.79;78.95
13013;BME280;22580;57.670;12.006;2023-04-25T00:07:14;99470.75;;;19.89;78.25
13013;BME280;22580;57.670;12.006;2023-04-25T00:09:41;99460.31;;;19.92;77.90
13013;BME280;22580;57.670;12.006;2023-04-25T00:12:08;99468.38;;;19.79;78.96
13013;BME280;22580;57.670;12.006;2023-04-25T00:14:37;99468.22;;;19.53;80.69
13013;BME280;22580;57.670;12.006;2023-04-25T00:17:04;99466.19;;;19.12;83.08
13013;BME280;22580;57.670;12.006;2023-04-25T00:19:31;99433.19;;;19.30;81.24
13013;BME280;22580;57.670;12.006;2023-04-25T00:21:58;99460.06;;;19.81;80.37
13013;BME280;22580;57.670;12.006;2023-04-25T00:24:25;99467.84;;;19.97;79.51
13013;BME280;22580;57.670;12.006;2023-04-25T00:26:52;99444.25;;;19.97;78.40
13013;BME280;22580;57.670;12.006;2023-04-25T00:29:19;99457.41;;;20.01;78.83
13013;BME280;22580;57.670;12.006;2023-04-25T00:31:47;99465.91;;;19.84;79.50
13013;BME280;22580;57.670;12.006;2023-04-25T00:34:14;99456.75;;;19.85;79.58
13013;BME280;22580;57.670;12.006;2023-04-25T00:36:40;99453.22;;;19.91;79.46
13013;BME280;22580;57.670;12.006;2023-04-25T00:39:07;99467.53;;;19.79;79.68
13013;BME280;22580;57.670;12.006;2023-04-25T00:41:34;99452.59;;;19.55;80.40
13013;BME280;22580;57.670;12.006;2023-04-25T00:44:02;99453.34;;;19.77;80.04
13013;BME280;22580;57.670;12.006;2023-04-25T00:46:30;99458.66;;;19.91;79.84
13013;BME280;22580;57.670;12.006;2023-04-25T00:48:59;99452.88;;;19.67;80.64
13013;BME280;22580;57.670;12.006;2023-04-25T00:51:26;99430.09;;;19.05;83.02
13013;BME280;22580;57.670;12.006;2023-04-25T00:53:53;99438.91;;;19.14;83.27
13013;BME280;22580;57.670;12.006;2023-04-25T00:56:20;99454.63;;;19.25;83.28
13013;BME280;22580;57.670;12.006;2023-04-25T00:58:48;99439.97;;;18.91;83.87
13013;BME280;22580;57.670;12.006;2023-04-25T01:01:17;99454.25;;;19.07;84.48
13013;BME280;22580;57.670;12.006;2023-04-25T01:03:46;99453.97;;;19.23;84.28
13013;BME280;22580;57.670;12.006;2023-04-25T01:06:16;99458.34;;;19.24;83.56
13013;BME280;22580;57.670;12.006;2023-04-25T01:08:43;99458.28;;;19.67;82.00
13013;BME280;22580;57.670;12.006;2023-04-25T01:11:10;99454.38;;;19.48;82.32
13013;BME280;22580;57.670;12.006;2023-04-25T01:13:37;99456.16;;;19.34;83.01
13013;BME280;22580;57.670;12.006;2023-04-25T01:16:04;99443.44;;;19.35;83.18
13013;BME280;22580;57.670;12.006;2023-04-25T01:18:31;99433.03;;;19.38;83.10
13013;BME280;22580;57.670;12.006;2023-04-25T01:21:06;99456.53;;;19.93;80.85
13013;BME280;22580;57.670;12.006;2023-04-25T01:23:34;99458.91;;;20.10;79.57
13013;BME280;22580;57.670;12.006;2023-04-25T01:26:01;99441.63;;;20.17;78.79
13013;BME280;22580;57.670;12.006;2023-04-25T01:28:28;99454.59;;;20.22;79.05
13013;BME280;22580;57.670;12.006;2023-04-25T01:30:56;99458.81;;;20.31;78.54
13013;BME280;22580;57.670;12.006;2023-04-25T01:33:23;99455.28;;;20.37;78.22
13013;BME280;22580;57.670;12.006;2023-04-25T01:35:50;99445.25;;;20.38;77.95
13013;BME280;22580;57.670;12.006;2023-04-25T01:38:18;99447.91;;;20.18;78.49
13013;BME280;22580;57.670;12.006;2023-04-25T01:40:46;99443.44;;;20.45;77.27
13013;BME280;22580;57.670;12.006;2023-04-25T01:43:13;99443.53;;;20.23;78.14
13013;BME280;22580;57.670;12.006;2023-04-25T01:45:40;99433.78;;;20.36;77.81
13013;BME280;22580;57.670;12.006;2023-04-25T01:48:08;99443.56;;;20.30;77.38
13013;BME280;22580;57.670;12.006;2023-04-25T01:50:35;99437.09;;;20.31;77.40
13013;BME280;22580;57.670;12.006;2023-04-25T01:53:02;99429.16;;;20.29;76.77
13013;BME280;22580;57.670;12.006;2023-04-25T01:55:30;99432.78;;;19.89;78.31
13013;BME280;22580;57.670;12.006;2023-04-25T01:57:58;99440.34;;;20.07;78.36
13013;BME280;22580;57.670;12.006;2023-04-25T02:00:26;99439.00;;;19.83;79.14
13013;BME280;22580;57.670;12.006;2023-04-25T02:02:52;99431.56;;;20.05;78.71
13013;BME280;22580;57.670;12.006;2023-04-25T02:05:20;99429.59;;;19.79;78.88
13013;BME280;22580;57.670;12.006;2023-04-25T02:07:47;99423.50;;;19.42;80.19
13013;BME280;22580;57.670;12.006;2023-04-25T02:10:14;99430.66;;;19.84;78.63
13013;BME280;22580;57.670;12.006;2023-04-25T02:12:42;99434.06;;;20.06;77.78
13013;BME280;22580;57.670;12.006;2023-04-25T02:15:10;99427.09;;;19.84;77.87
13013;BME280;22580;57.670;12.006;2023-04-25T02:17:37;99419.94;;;19.42;78.94
13013;BME280;22580;57.670;12.006;2023-04-25T02:20:06;99420.97;;;19.41;79.43
13013;BME280;22580;57.670;12.006;2023-04-25T02:22:33;99416.53;;;19.33;80.31
13013;BME280;22580;57.670;12.006;2023-04-25T02:25:01;99415.47;;;19.55;78.94
13013;BME280;22580;57.670;12.006;2023-04-25T02:27:29;99417.78;;;19.03;81.57
13013;BME280;22580;57.670;12.006;2023-04-25T02:29:58;99417.06;;;19.50;79.88
13013;BME280;22580;57.670;12.006;2023-04-25T02:32:25;99412.91;;;19.19;81.07
13013;BME280;22580;57.670;12.006;2023-04-25T02:34:52;99397.47;;;19.48;79.82
13013;BME280;22580;57.670;12.006;2023-04-25T02:37:20;99394.22;;;19.31;79.82
13013;BME280;22580;57.670;12.006;2023-04-25T02:39:47;99410.56;;;19.44;79.57
13013;BME280;22580;57.670;12.006;2023-04-25T02:42:15;99382.69;;;19.50;79.14
13013;BME280;22580;57.670;12.006;2023-04-25T02:44:42;99394.31;;;19.16;80.87
13013;BME280;22580;57.670;12.006;2023-04-25T02:47:10;99392.78;;;19.35;81.08
13013;BME280;22580;57.670;12.006;2023-04-25T02:49:37;99400.97;;;19.70;80.85
13013;BME280;22580;57.670;12.006;2023-04-25T02:52:04;99388.78;;;20.00;79.51
13013;BME280;22580;57.670;12.006;2023-04-25T02:54:31;99392.00;;;20.23;78.40
13013;BME280;22580;57.670;12.006;2023-04-25T02:56:58;99391.91;;;20.04;79.26
13013;BME280;22580;57.670;12.006;2023-04-25T02:59:25;99373.19;;;20.15;78.78
13013;BME280;22580;57.670;12.006;2023-04-25T03:01:52;99375.41;;;20.59;75.83
13013;BME280;22580;57.670;12.006;2023-04-25T03:04:20;99378.28;;;20.45;75.20
13013;BME280;22580;57.670;12.006;2023-04-25T03:06:49;99366.75;;;20.36;75.29
13013;BME280;22580;57.670;12.006;2023-04-25T03:09:16;99371.25;;;20.70;74.80
13013;BME280;22580;57.670;12.006;2023-04-25T03:11:44;99385.44;;;20.79;74.11
13013;BME280;22580;57.670;12.006;2023-04-25T03:14:11;99363.09;;;20.77;73.38
13013;BME280;22580;57.670;12.006;2023-04-25T03:16:38;99380.22;;;20.77;72.90
13013;BME280;22580;57.670;12.006;2023-04-25T03:19:05;99373.75;;;20.78;73.06
13013;BME280;22580;57.670;12.006;2023-04-25T03:21:34;99366.63;;;20.84;72.24
13013;BME280;22580;57.670;12.006;2023-04-25T03:24:02;99366.81;;;20.82;71.95
13013;BME280;22580;57.670;12.006;2023-04-25T03:26:30;99373.94;;;20.83;70.72
13013;BME280;22580;57.670;12.006;2023-04-25T03:28:57;99362.47;;;20.75;71.11
13013;BME280;22580;57.670;12.006;2023-04-25T03:31:24;99340.31;;;20.71;70.52
13013;BME280;22580;57.670;12.006;2023-04-25T03:33:51;99334.88;;;20.84;70.30
13013;BME280;22580;57.670;12.006;2023-04-25T03:36:18;99362.22;;;21.09;69.95
13013;BME280;22580;57.670;12.006;2023-04-25T03:38:46;99313.78;;;20.80;69.72
13013;BME280;22580;57.670;12.006;2023-04-25T03:41:14;99358.69;;;21.29;69.30
13013;BME280;22580;57.670;12.006;2023-04-25T03:43:41;99354.06;;;21.16;68.64
13013;BME280;22580;57.670;12.006;2023-04-25T03:46:07;99359.94;;;21.13;69.57
13013;BME280;22580;57.670;12.006;2023-04-25T03:48:34;99358.88;;;20.94;69.96
13013;BME280;22580;57.670;12.006;2023-04-25T03:51:01;99354.09;;;21.03;69.46
13013;BME280;22580;57.670;12.006;2023-04-25T03:53:28;99357.22;;;21.13;69.17
13013;BME280;22580;57.670;12.006;2023-04-25T03:55:56;99354.91;;;20.90;69.59
13013;BME280;22580;57.670;12.006;2023-04-25T03:58:23;99352.84;;;20.99;69.55
13013;BME280;22580;57.670;12.006;2023-04-25T04:00:50;99328.19;;;20.80;70.30
13013;BME280;22580;57.670;12.006;2023-04-25T04:03:18;99356.16;;;20.87;70.80
13013;BME280;22580;57.670;12.006;2023-04-25T04:05:45;99351.78;;;20.93;70.46
13013;BME280;22580;57.670;12.006;2023-04-25T04:08:12;99343.00;;;20.98;69.86
13013;BME280;22580;57.670;12.006;2023-04-25T04:10:39;99343.00;;;20.98;70.03
13013;BME280;22580;57.670;12.006;2023-04-25T04:13:07;99365.16;;;21.14;69.84
13013;BME280;22580;57.670;12.006;2023-04-25T04:15:35;99344.88;;;20.97;69.58
13013;BME280;22580;57.670;12.006;2023-04-25T04:18:04;99355.75;;;21.04;69.12
13013;BME280;22580;57.670;12.006;2023-04-25T04:20:31;99363.91;;;21.10;69.40
13013;BME280;22580;57.670;12.006;2023-04-25T04:22:58;99362.84;;;21.11;69.78
13013;BME280;22580;57.670;12.006;2023-04-25T04:25:25;99364.94;;;21.16;69.26
13013;BME280;22580;57.670;12.006;2023-04-25T04:27:52;99358.03;;;21.07;69.79
13013;BME280;22580;57.670;12.006;2023-04-25T04:30:22;99364.13;;;20.95;70.18
13013;BME280;22580;57.670;12.006;2023-04-25T04:32:51;99325.88;;;20.90;69.79
13013;BME280;22580;57.670;12.006;2023-04-25T04:35:18;99365.16;;;21.21;69.79
13013;BME280;22580;57.670;12.006;2023-04-25T04:37:55;99322.56;;;20.49;70.03
13013;BME280;22580;57.670;12.006;2023-04-25T04:40:22;99361.22;;;20.77;70.92
13013;BME280;22580;57.670;12.006;2023-04-25T04:42:50;99364.53;;;20.86;70.94
13013;BME280;22580;57.670;12.006;2023-04-25T04:45:18;99356.16;;;20.94;70.84
13013;BME280;22580;57.670;12.006;2023-04-25T04:47:47;99366.22;;;20.74;69.64
13013;BME280;22580;57.670;12.006;2023-04-25T04:50:14;99362.00;;;20.45;70.56
13013;BME280;22580;57.670;12.006;2023-04-25T04:52:41;99361.13;;;20.31;71.04
13013;BME280;22580;57.670;12.006;2023-04-25T04:55:09;99365.19;;;20.68;70.19
13013;BME280;22580;57.670;12.006;2023-04-25T04:57:36;99362.06;;;20.71;70.09
13013;BME280;22580;57.670;12.006;2023-04-25T05:00:05;99361.19;;;20.84;69.33
13013;BME280;22580;57.670;12.006;2023-04-25T05:02:36;99359.53;;;20.76;69.02
13013;BME280;22580;57.670;12.006;2023-04-25T05:05:05;99369.56;;;20.56;69.94
13013;BME280;22580;57.670;12.006;2023-04-25T05:07:32;99338.00;;;20.55;69.83
13013;BME280;22580;57.670;12.006;2023-04-25T05:09:59;99368.50;;;20.83;69.43
13013;BME280;22580;57.670;12.006;2023-04-25T05:12:26;99368.72;;;20.88;69.30
13013;BME280;22580;57.670;12.006;2023-04-25T05:14:53;99370.19;;;20.58;70.56
13013;BME280;22580;57.670;12.006;2023-04-25T05:17:21;99378.09;;;20.53;70.93
13013;BME280;22580;57.670;12.006;2023-04-25T05:19:48;99380.84;;;20.79;70.49
13013;BME280;22580;57.670;12.006;2023-04-25T05:22:17;99375.19;;;20.81;70.41
13013;BME280;22580;57.670;12.006;2023-04-25T05:24:44;99376.25;;;20.60;71.08
13013;BME280;22580;57.670;12.006;2023-04-25T05:27:11;99373.31;;;20.68;71.20
13013;BME280;22580;57.670;12.006;2023-04-25T05:29:38;99374.16;;;20.55;71.02
13013;BME280;22580;57.670;12.006;2023-04-25T05:32:05;99361.81;;;20.53;70.76
13013;BME280;22580;57.670;12.006;2023-04-25T05:34:33;99374.13;;;20.49;70.96
13013;BME280;22580;57.670;12.006;2023-04-25T05:36:59;99354.63;;;20.25;71.36
13013;BME280;22580;57.670;12.006;2023-04-25T05:39:28;99364.84;;;20.23;71.56
13013;BME280;22580;57.670;12.006;2023-04-25T05:41:55;99392.59;;;20.19;72.07
13013;BME280;22580;57.670;12.006;2023-04-25T05:44:22;99376.50;;;20.11;72.47
13013;BME280;22580;57.670;12.006;2023-04-25T05:46:49;99359.00;;;20.20;72.24
13013;BME280;22580;57.670;12.006;2023-04-25T05:49:16;99374.97;;;20.43;71.61
13013;BME280;22580;57.670;12.006;2023-04-25T05:51:43;99351.03;;;20.12;71.94
13013;BME280;22580;57.670;12.006;2023-04-25T05:54:09;99379.69;;;20.27;72.76
13013;BME280;22580;57.670;12.006;2023-04-25T05:56:38;99385.28;;;20.19;72.84
13013;BME280;22580;57.670;12.006;2023-04-25T05:59:04;99386.59;;;20.37;72.32
13013;BME280;22580;57.670;12.006;2023-04-25T06:01:31;99383.63;;;20.18;72.54
13013;BME280;22580;57.670;12.006;2023-04-25T06:03:58;99383.59;;;20.12;73.12
13013;BME280;22580;57.670;12.006;2023-04-25T06:06:25;99391.88;;;19.97;73.40
13013;BME280;22580;57.670;12.006;2023-04-25T06:08:52;99363.50;;;19.86;73.07
13013;BME280;22580;57.670;12.006;2023-04-25T06:11:19;99401.06;;;19.96;73.15
13013;BME280;22580;57.670;12.006;2023-04-25T06:13:47;99394.41;;;19.98;73.22
13013;BME280;22580;57.670;12.006;2023-04-25T06:16:14;99405.28;;;19.57;74.97
13013;BME280;22580;57.670;12.006;2023-04-25T06:18:41;99402.75;;;18.36;79.72
13013;BME280;22580;57.670;12.006;2023-04-25T06:21:08;99417.78;;;18.60;79.93
13013;BME280;22580;57.670;12.006;2023-04-25T06:23:35;99417.56;;;18.40;81.02
13013;BME280;22580;57.670;12.006;2023-04-25T06:26:02;99398.84;;;19.03;77.99
13013;BME280;22580;57.670;12.006;2023-04-25T06:28:29;99402.72;;;18.93;78.46
13013;BME280;22580;57.670;12.006;2023-04-25T06:30:57;99406.97;;;18.81;79.61
13013;BME280;22580;57.670;12.006;2023-04-25T06:33:24;99406.50;;;19.27;76.84
13013;BME280;22580;57.670;12.006;2023-04-25T06:35:52;99419.03;;;19.56;76.19
13013;BME280;22580;57.670;12.006;2023-04-25T06:38:18;99419.28;;;19.05;76.68
13013;BME280;22580;57.670;12.006;2023-04-25T06:40:45;99404.19;;;18.96;76.88
13013;BME280;22580;57.670;12.006;2023-04-25T06:43:12;99437.59;;;18.46;80.18
13013;BME280;22580;57.670;12.006;2023-04-25T06:45:39;99443.59;;;18.77;79.31
13013;BME280;22580;57.670;12.006;2023-04-25T06:48:09;99438.56;;;18.74;78.24
13013;BME280;22580;57.670;12.006;2023-04-25T06:50:36;99440.03;;;19.26;76.85
13013;BME280;22580;57.670;12.006;2023-04-25T06:53:03;99404.78;;;19.19;76.23
13013;BME280;22580;57.670;12.006;2023-04-25T06:55:30;99453.63;;;19.88;75.58
13013;BME280;22580;57.670;12.006;2023-04-25T06:57:57;99462.28;;;20.12;74.54
13013;BME280;22580;57.670;12.006;2023-04-25T07:00:24;99453.94;;;20.13;73.46
13013;BME280;22580;57.670;12.006;2023-04-25T07:02:51;99468.28;;;20.01;72.00
13013;BME280;22580;57.670;12.006;2023-04-25T07:05:20;99463.28;;;19.63;71.50
13013;BME280;22580;57.670;12.006;2023-04-25T07:07:46;99456.34;;;19.54;71.80
13013;BME280;22580;57.670;12.006;2023-04-25T07:10:13;99467.16;;;18.62;74.63
13013;BME280;22580;57.670;12.006;2023-04-25T07:12:40;99457.13;;;18.98;73.83
13013;BME280;22580;57.670;12.006;2023-04-25T07:15:08;99458.16;;;18.97;75.14
13013;BME280;22580;57.670;12.006;2023-04-25T07:17:36;99457.69;;;17.71;78.15
13013;BME280;22580;57.670;12.006;2023-04-25T07:20:03;99477.06;;;17.75;79.31
13013;BME280;22580;57.670;12.006;2023-04-25T07:22:32;99483.94;;;18.21;78.08
13013;BME280;22580;57.670;12.006;2023-04-25T07:24:59;99478.59;;;17.25;81.80
13013;BME280;22580;57.670;12.006;2023-04-25T07:27:26;99487.09;;;16.68;82.83
13013;BME280;22580;57.670;12.006;2023-04-25T07:29:53;99478.75;;;17.23;80.49
13013;BME280;22580;57.670;12.006;2023-04-25T07:32:20;99480.63;;;17.23;80.54
13013;BME280;22580;57.670;12.006;2023-04-25T07:34:47;99496.34;;;17.19;81.68
13013;BME280;22580;57.670;12.006;2023-04-25T07:37:14;99489.66;;;17.67;81.25
13013;BME280;22580;57.670;12.006;2023-04-25T07:39:42;99501.97;;;17.47;80.29
13013;BME280;22580;57.670;12.006;2023-04-25T07:42:11;99497.41;;;18.00;81.20
13013;BME280;22580;57.670;12.006;2023-04-25T07:44:38;99504.03;;;18.48;78.30
13013;BME280;22580;57.670;12.006;2023-04-25T07:47:11;99498.16;;;17.94;76.80
13013;BME280;22580;57.670;12.006;2023-04-25T07:49:39;99502.38;;;17.59;77.25
13013;BME280;22580;57.670;12.006;2023-04-25T07:52:06;99508.97;;;17.04;80.70
13013;BME280;22580;57.670;12.006;2023-04-25T07:54:34;99530.97;;;16.93;81.30
13013;BME280;22580;57.670;12.006;2023-04-25T07:57:02;99522.94;;;17.45;78.59
13013;BME280;22580;57.670;12.006;2023-04-25T07:59:31;99519.25;;;17.61;79.81
13013;BME280;22580;57.670;12.006;2023-04-25T08:01:58;99518.75;;;17.95;77.00
13013;BME280;22580;57.670;12.006;2023-04-25T08:04:25;99514.13;;;17.14;78.99
13013;BME280;22580;57.670;12.006;2023-04-25T08:06:52;99526.81;;;17.28;79.24
13013;BME280;22580;57.670;12.006;2023-04-25T08:09:19;99532.19;;;18.03;78.20
13013;BME280;22580;57.670;12.006;2023-04-25T08:11:47;99538.22;;;17.15;78.25
13013;BME280;22580;57.670;12.006;2023-04-25T08:14:15;99532.22;;;17.28;78.51
13013;BME280;22580;57.670;12.006;2023-04-25T08:16:42;99533.25;;;17.42;77.74
13013;BME280;22580;57.670;12.006;2023-04-25T08:19:09;99528.97;;;17.32;76.73
13013;BME280;22580;57.670;12.006;2023-04-25T08:21:36;99525.75;;;15.74;84.07
13013;BME280;22580;57.670;12.006;2023-04-25T08:24:03;99524.69;;;16.38;83.93
13013;BME280;22580;57.670;12.006;2023-04-25T08:26:30;99577.41;;;15.94;84.07
13013;BME280;22580;57.670;12.006;2023-04-25T08:28:57;99546.09;;;15.93;84.56
13013;BME280;22580;57.670;12.006;2023-04-25T08:31:26;99540.69;;;16.01;83.85
13013;BME280;22580;57.670;12.006;2023-04-25T08:33:53;99570.03;;;17.05;80.37
13013;BME280;22580;57.670;12.006;2023-04-25T08:36:20;99584.50;;;15.95;81.87
13013;BME280;22580;57.670;12.006;2023-04-25T08:38:46;99561.94;;;16.74;80.02
13013;BME280;22580;57.670;12.006;2023-04-25T08:41:13;99576.16;;;16.29;80.08
13013;BME280;22580;57.670;12.006;2023-04-25T08:43:42;99578.81;;;17.30;78.16
13013;BME280;22580;57.670;12.006;2023-04-25T08:46:11;99579.69;;;16.99;77.19
13013;BME280;22580;57.670;12.006;2023-04-25T08:48:40;99592.56;;;16.50;79.01
13013;BME280;22580;57.670;12.006;2023-04-25T08:51:09;99590.09;;;16.80;78.25
13013;BME280;22580;57.670;12.006;2023-04-25T08:53:38;99583.66;;;15.94;80.81
13013;BME280;22580;57.670;12.006;2023-04-25T08:56:09;99589.44;;;15.59;81.08
13013;BME280;22580;57.670;12.006;2023-04-25T08:58:38;99606.25;;;15.69;81.58
13013;BME280;22580;57.670;12.006;2023-04-25T09:01:05;99608.00;;;16.33;79.23
13013;BME280;22580;57.670;12.006;2023-04-25T09:03:32;99611.47;;;16.89;78.27
13013;BME280;22580;57.670;12.006;2023-04-25T09:06:01;99615.25;;;16.64;78.76
13013;BME280;22580;57.670;12.006;2023-04-25T09:08:28;99630.78;;;16.15;77.89
13013;BME280;22580;57.670;12.006;2023-04-25T09:10:55;99610.72;;;17.26;74.95
13013;BME280;22580;57.670;12.006;2023-04-25T09:13:27;99622.59;;;16.86;75.47
13013;BME280;22580;57.670;12.006;2023-04-25T09:15:55;99616.13;;;16.64;76.88
13013;BME280;22580;57.670;12.006;2023-04-25T09:18:23;99605.19;;;16.97;75.65
13013;BME280;22580;57.670;12.006;2023-04-25T09:20:52;99632.91;;;16.83;75.42
13013;BME280;22580;57.670;12.006;2023-04-25T09:23:22;99633.94;;;16.34;77.30
13013;BME280;22580;57.670;12.006;2023-04-25T09:25:50;99631.84;;;16.92;76.34
13013;BME280;22580;57.670;12.006;2023-04-25T09:28:23;99623.84;;;16.28;77.97
13013;BME280;22580;57.670;12.006;2023-04-25T09:30:54;99644.66;;;16.51;77.29
13013;BME280;22580;57.670;12.006;2023-04-25T09:33:27;99647.34;;;16.51;76.35
13013;BME280;22580;57.670;12.006;2023-04-25T09:36:01;99656.44;;;16.66;74.19
13013;BME280;22580;57.670;12.006;2023-04-25T09:38:31;99660.19;;;17.27;72.39
13013;BME280;22580;57.670;12.006;2023-04-25T09:40:59;99648.75;;;17.40;73.00
13013;BME280;22580;57.670;12.006;2023-04-25T09:43:27;99671.38;;;17.16;73.04
13013;BME280;22580;57.670;12.006;2023-04-25T09:45:54;99665.78;;;16.86;73.33
13013;BME280;22580;57.670;12.006;2023-04-25T09:48:26;99678.78;;;16.83;72.82
13013;BME280;22580;57.670;12.006;2023-04-25T09:51:07;99687.84;;;17.29;71.86
13013;BME280;22580;57.670;12.006;2023-04-25T09:53:37;99682.75;;;17.03;72.95
13013;BME280;22580;57.670;12.006;2023-04-25T09:56:05;99687.38;;;17.48;70.85
13013;BME280;22580;57.670;12.006;2023-04-25T09:58:33;99680.25;;;18.01;72.32
13013;BME280;22580;57.670;12.006;2023-04-25T10:01:01;99665.91;;;18.30;69.71
13013;BME280;22580;57.670;12.006;2023-04-25T10:03:30;99689.31;;;18.23;68.58
13013;BME280;22580;57.670;12.006;2023-04-25T10:05:59;99695.97;;;17.97;70.06
13013;BME280;22580;57.670;12.006;2023-04-25T10:08:36;99700.63;;;17.89;67.35
13013;BME280;22580;57.670;12.006;2023-04-25T10:11:05;99710.56;;;17.12;66.49
13013;BME280;22580;57.670;12.006;2023-04-25T10:13:34;99707.53;;;16.67;70.10
13013;BME280;22580;57.670;12.006;2023-04-25T10:16:02;99721.75;;;17.00;69.78
13013;BME280;22580;57.670;12.006;2023-04-25T10:18:30;99715.72;;;16.90;68.18
13013;BME280;22580;57.670;12.006;2023-04-25T10:20:59;99712.00;;;16.12;70.79
13013;BME280;22580;57.670;12.006;2023-04-25T10:23:26;99711.91;;;16.60;70.70
13013;BME280;22580;57.670;12.006;2023-04-25T10:25:55;99726.91;;;17.41;68.53
13013;BME280;22580;57.670;12.006;2023-04-25T10:28:23;99724.53;;;17.46;66.77
13013;BME280;22580;57.670;12.006;2023-04-25T10:30:57;99726.72;;;16.81;68.49
13013;BME280;22580;57.670;12.006;2023-04-25T10:33:33;99738.69;;;17.25;67.25
13013;BME280;22580;57.670;12.006;2023-04-25T10:36:09;99721.66;;;16.78;68.66
13013;BME280;22580;57.670;12.006;2023-04-25T10:38:36;99734.84;;;16.48;68.34
13013;BME280;22580;57.670;12.006;2023-04-25T10:41:06;99748.53;;;17.41;67.11
13013;BME280;22580;57.670;12.006;2023-04-25T10:43:36;99748.00;;;17.77;65.56
13013;BME280;22580;57.670;12.006;2023-04-25T10:46:13;99744.22;;;17.32;65.18
13013;BME280;22580;57.670;12.006;2023-04-25T10:48:46;99743.97;;;16.47;66.92
13013;BME280;22580;57.670;12.006;2023-04-25T10:51:18;99758.81;;;17.15;66.79
13013;BME280;22580;57.670;12.006;2023-04-25T10:53:45;99754.41;;;17.22;65.66
13013;BME280;22580;57.670;12.006;2023-04-25T10:56:18;99757.31;;;17.12;65.56
13013;BME280;22580;57.670;12.006;2023-04-25T10:58:47;99734.72;;;17.05;65.97
13013;BME280;22580;57.670;12.006;2023-04-25T11:01:20;99753.31;;;17.62;65.02
13013;BME280;22580;57.670;12.006;2023-04-25T11:03:47;99760.94;;;17.89;62.66
13013;BME280;22580;57.670;12.006;2023-04-25T11:06:22;99755.16;;;17.61;62.75
13013;BME280;22580;57.670;12.006;2023-04-25T11:08:51;99755.91;;;16.69;65.82
13013;BME280;22580;57.670;12.006;2023-04-25T11:11:19;99768.81;;;17.37;64.13
13013;BME280;22580;57.670;12.006;2023-04-25T11:13:48;99768.03;;;17.59;63.61
13013;BME280;22580;57.670;12.006;2023-04-25T11:16:15;99777.53;;;17.16;63.90
13013;BME280;22580;57.670;12.006;2023-04-25T11:18:42;99786.31;;;16.14;66.89
13013;BME280;22580;57.670;12.006;2023-04-25T11:21:09;99788.16;;;16.30;66.41
13013;BME280;22580;57.670;12.006;2023-04-25T11:23:37;99780.19;;;16.53;65.71
13013;BME280;22580;57.670;12.006;2023-04-25T11:26:04;99781.59;;;16.24;66.43
13013;BME280;22580;57.670;12.006;2023-04-25T11:28:32;99780.94;;;17.41;63.92
13013;BME280;22580;57.670;12.006;2023-04-25T11:30:59;99742.78;;;17.13;62.71
13013;BME280;22580;57.670;12.006;2023-04-25T11:33:26;99789.69;;;17.20;63.95
13013;BME280;22580;57.670;12.006;2023-04-25T11:35:54;99789.34;;;17.15;64.17
13013;BME280;22580;57.670;12.006;2023-04-25T11:38:22;99797.72;;;16.81;66.43
13013;BME280;22580;57.670;12.006;2023-04-25T11:40:51;99799.66;;;17.12;66.09
13013;BME280;22580;57.670;12.006;2023-04-25T11:43:20;99804.13;;;16.64;69.03
13013;BME280;22580;57.670;12.006;2023-04-25T11:45:49;99802.09;;;16.82;69.44
13013;BME280;22580;57.670;12.006;2023-04-25T11:48:17;99806.50;;;16.59;69.99
13013;BME280;22580;57.670;12.006;2023-04-25T11:50:45;99803.50;;;16.29;71.57
13013;BME280;22580;57.670;12.006;2023-04-25T11:53:13;99808.91;;;16.29;71.86
13013;BME280;22580;57.670;12.006;2023-04-25T11:55:40;99810.25;;;16.25;72.41
13013;BME280;22580;57.670;12.006;2023-04-25T11:58:07;99822.16;;;16.88;70.21
13013;BME280;22580;57.670;12.006;2023-04-25T12:00:34;99808.53;;;16.08;72.07
13013;BME280;22580;57.670;12.006;2023-04-25T12:03:03;99832.97;;;16.15;72.14
13013;BME280;22580;57.670;12.006;2023-04-25T12:05:31;99818.09;;;15.86;72.24
13013;BME280;22580;57.670;12.006;2023-04-25T12:08:10;99819.47;;;15.98;72.01
13013;BME280;22580;57.670;12.006;2023-04-25T12:10:39;99836.72;;;15.55;72.28
13013;BME280;22580;57.670;12.006;2023-04-25T12:13:26;99835.31;;;15.43;74.51
13013;BME280;22580;57.670;12.006;2023-04-25T12:15:54;99825.53;;;16.00;73.37
13013;BME280;22580;57.670;12.006;2023-04-25T12:18:24;99839.75;;;15.60;74.06
13013;BME280;22580;57.670;12.006;2023-04-25T12:20:53;99804.69;;;15.44;73.27
13013;BME280;22580;57.670;12.006;2023-04-25T12:23:28;99840.22;;;16.55;71.64
13013;BME280;22580;57.670;12.006;2023-04-25T12:25:57;99841.94;;;16.23;71.87
13013;BME280;22580;57.670;12.006;2023-04-25T12:28:31;99808.53;;;16.65;70.73
13013;BME280;22580;57.670;12.006;2023-04-25T12:30:59;99845.47;;;16.40;70.54
13013;BME280;22580;57.670;12.006;2023-04-25T12:33:31;99827.91;;;16.52;69.95
13013;BME280;22580;57.670;12.006;2023-04-25T12:35:59;99859.59;;;15.51;74.83
13013;BME280;22580;57.670;12.006;2023-04-25T12:38:31;99815.81;;;16.32;70.15
13013;BME280;22580;57.670;12.006;2023-04-25T12:40:59;99843.25;;;16.60;68.62
13013;BME280;22580;57.670;12.006;2023-04-25T12:43:27;99850.50;;;16.59;67.21
13013;BME280;22580;57.670;12.006;2023-04-25T12:45:55;99848.50;;;16.69;67.40
13013;BME280;22580;57.670;12.006;2023-04-25T12:48:22;99847.66;;;16.45;66.46
13013;BME280;22580;57.670;12.006;2023-04-25T12:50:51;99862.94;;;16.03;70.64
13013;BME280;22580;57.670;12.006;2023-04-25T12:53:19;99852.28;;;15.86;68.52
13013;BME280;22580;57.670;12.006;2023-04-25T12:55:46;99868.91;;;16.39;66.96